sensor_id;sensor_type;location;lat;lon;timestamp;P1;durP1;ratioP1;P2;durP2;ratioP2
72201;SDS011;60105;54.956;73.412;2023-08-06T00:00:43;12.87;;;6.47;;
72201;SDS011;60105;54.956;73.412;2023-08-06T00:03:44;12.98;;;7.22;;
72201;SDS011;60105;54.956;73.412;2023-08-06T00:06:46;12.40;;;6.90;;
72201;SDS011;60105;54.956;73.412;2023-08-06T00:09:47;12.53;;;6.53;;
72201;SDS011;60105;54.956;73.412;2023-08-06T00:12:48;12.73;;;7.00;;
72201;SDS011;60105;54.956;73.412;2023-08-06T00:15:50;16.60;;;7.75;;
72201;SDS011;60105;54.956;73.412;2023-08-06T00:18:51;15.88;;;7.85;;
72201;SDS011;60105;54.956;73.412;2023-08-06T00:21:53;13.23;;;7.53;;
72201;SDS011;60105;54.956;73.412;2023-08-06T00:24:54;14.65;;;7.32;;
72201;SDS011;60105;54.956;73.412;2023-08-06T00:27:58;15.07;;;7.45;;
72201;SDS011;60105;54.956;73.412;2023-08-06T00:30:59;12.83;;;7.50;;
72201;SDS011;60105;54.956;73.412;2023-08-06T00:34:40;12.75;;;7.43;;
72201;SDS011;60105;54.956;73.412;2023-08-06T00:37:42;18.13;;;8.10;;
72201;SDS011;60105;54.956;73.412;2023-08-06T00:40:43;13.63;;;7.53;;
72201;SDS011;60105;54.956;73.412;2023-08-06T00:43:45;14.85;;;7.25;;
72201;SDS011;60105;54.956;73.412;2023-08-06T00:46:46;11.80;;;7.18;;
72201;SDS011;60105;54.956;73.412;2023-08-06T00:49:48;16.03;;;5.37;;
72201;SDS011;60105;54.956;73.412;2023-08-06T00:52:50;10.57;;;6.20;;
72201;SDS011;60105;54.956;73.412;2023-08-06T00:55:52;14.07;;;6.93;;
72201;SDS011;60105;54.956;73.412;2023-08-06T00:58:54;17.08;;;7.18;;
72201;SDS011;60105;54.956;73.412;2023-08-06T01:01:56;12.07;;;6.82;;
72201;SDS011;60105;54.956;73.412;2023-08-06T01:04:57;9.80;;;6.00;;
72201;SDS011;60105;54.956;73.412;2023-08-06T01:11:44;13.25;;;6.75;;
72201;SDS011;60105;54.956;73.412;2023-08-06T01:18:01;10.45;;;6.15;;
72201;SDS011;60105;54.956;73.412;2023-08-06T01:21:03;15.10;;;6.30;;
72201;SDS011;60105;54.956;73.412;2023-08-06T01:24:40;10.52;;;6.50;;
72201;SDS011;60105;54.956;73.412;2023-08-06T01:27:50;13.88;;;7.15;;
72201;SDS011;60105;54.956;73.412;2023-08-06T01:30:57;15.27;;;7.17;;
72201;SDS011;60105;54.956;73.412;2023-08-06T01:34:41;11.43;;;5.82;;
72201;SDS011;60105;54.956;73.412;2023-08-06T01:37:45;13.63;;;6.38;;
72201;SDS011;60105;54.956;73.412;2023-08-06T01:40:47;13.70;;;7.37;;
72201;SDS011;60105;54.956;73.412;2023-08-06T01:43:49;17.45;;;7.25;;
72201;SDS011;60105;54.956;73.412;2023-08-06T01:46:50;10.83;;;5.87;;
72201;SDS011;60105;54.956;73.412;2023-08-06T01:49:52;15.18;;;5.35;;
72201;SDS011;60105;54.956;73.412;2023-08-06T01:52:53;13.48;;;6.28;;
72201;SDS011;60105;54.956;73.412;2023-08-06T01:55:55;12.03;;;6.00;;
72201;SDS011;60105;54.956;73.412;2023-08-06T01:59:09;10.85;;;6.32;;
72201;SDS011;60105;54.956;73.412;2023-08-06T02:02:10;11.57;;;6.05;;
72201;SDS011;60105;54.956;73.412;2023-08-06T02:05:11;12.23;;;5.53;;
72201;SDS011;60105;54.956;73.412;2023-08-06T02:08:14;13.35;;;5.60;;
72201;SDS011;60105;54.956;73.412;2023-08-06T02:11:15;12.05;;;5.28;;
72201;SDS011;60105;54.956;73.412;2023-08-06T02:17:41;10.90;;;4.57;;
72201;SDS011;60105;54.956;73.412;2023-08-06T02:21:03;10.63;;;4.88;;
72201;SDS011;60105;54.956;73.412;2023-08-06T02:24:40;13.80;;;5.70;;
72201;SDS011;60105;54.956;73.412;2023-08-06T02:27:43;10.53;;;5.53;;
72201;SDS011;60105;54.956;73.412;2023-08-06T02:30:51;9.75;;;5.15;;
72201;SDS011;60105;54.956;73.412;2023-08-06T02:33:52;12.13;;;5.78;;
72201;SDS011;60105;54.956;73.412;2023-08-06T02:36:54;9.48;;;5.00;;
72201;SDS011;60105;54.956;73.412;2023-08-06T02:39:56;10.00;;;5.20;;
72201;SDS011;60105;54.956;73.412;2023-08-06T02:42:57;13.52;;;5.32;;
72201;SDS011;60105;54.956;73.412;2023-08-06T02:45:59;9.40;;;5.30;;
72201;SDS011;60105;54.956;73.412;2023-08-06T02:49:40;10.07;;;6.72;;
72201;SDS011;60105;54.956;73.412;2023-08-06T02:52:42;10.17;;;6.07;;
72201;SDS011;60105;54.956;73.412;2023-08-06T02:55:47;13.20;;;6.50;;
72201;SDS011;60105;54.956;73.412;2023-08-06T02:58:51;13.03;;;6.30;;
72201;SDS011;60105;54.956;73.412;2023-08-06T03:02:02;11.07;;;6.50;;
72201;SDS011;60105;54.956;73.412;2023-08-06T03:05:14;10.67;;;6.00;;
72201;SDS011;60105;54.956;73.412;2023-08-06T03:08:19;11.05;;;5.85;;
72201;SDS011;60105;54.956;73.412;2023-08-06T03:11:25;12.20;;;6.20;;
72201;SDS011;60105;54.956;73.412;2023-08-06T03:17:42;16.83;;;6.97;;
72201;SDS011;60105;54.956;73.412;2023-08-06T03:20:46;14.00;;;6.43;;
72201;SDS011;60105;54.956;73.412;2023-08-06T03:23:47;11.27;;;6.47;;
72201;SDS011;60105;54.956;73.412;2023-08-06T03:26:50;12.57;;;6.43;;
72201;SDS011;60105;54.956;73.412;2023-08-06T03:29:52;15.20;;;7.10;;
72201;SDS011;60105;54.956;73.412;2023-08-06T03:32:56;10.50;;;6.00;;
72201;SDS011;60105;54.956;73.412;2023-08-06T03:35:58;14.02;;;7.32;;
72201;SDS011;60105;54.956;73.412;2023-08-06T03:39:40;13.14;;;6.92;;
72201;SDS011;60105;54.956;73.412;2023-08-06T03:42:42;13.60;;;6.83;;
72201;SDS011;60105;54.956;73.412;2023-08-06T03:45:44;12.93;;;7.35;;
72201;SDS011;60105;54.956;73.412;2023-08-06T03:48:46;13.00;;;7.43;;
72201;SDS011;60105;54.956;73.412;2023-08-06T03:51:47;13.93;;;7.47;;
72201;SDS011;60105;54.956;73.412;2023-08-06T03:54:49;11.27;;;6.63;;
72201;SDS011;60105;54.956;73.412;2023-08-06T03:57:50;12.15;;;7.13;;
72201;SDS011;60105;54.956;73.412;2023-08-06T04:00:58;15.17;;;7.87;;
72201;SDS011;60105;54.956;73.412;2023-08-06T04:04:40;19.65;;;9.25;;
72201;SDS011;60105;54.956;73.412;2023-08-06T04:07:42;14.07;;;8.70;;
72201;SDS011;60105;54.956;73.412;2023-08-06T04:10:43;16.27;;;8.10;;
72201;SDS011;60105;54.956;73.412;2023-08-06T04:13:44;13.52;;;8.82;;
72201;SDS011;60105;54.956;73.412;2023-08-06T04:16:45;15.13;;;7.73;;
72201;SDS011;60105;54.956;73.412;2023-08-06T04:20:07;18.75;;;8.82;;
72201;SDS011;60105;54.956;73.412;2023-08-06T04:23:18;19.73;;;9.67;;
72201;SDS011;60105;54.956;73.412;2023-08-06T04:26:39;22.10;;;9.73;;
72201;SDS011;60105;54.956;73.412;2023-08-06T04:29:40;19.83;;;9.90;;
72201;SDS011;60105;54.956;73.412;2023-08-06T04:32:42;28.23;;;11.95;;
72201;SDS011;60105;54.956;73.412;2023-08-06T04:35:43;38.53;;;13.27;;
72201;SDS011;60105;54.956;73.412;2023-08-06T04:38:45;46.50;;;16.03;;
72201;SDS011;60105;54.956;73.412;2023-08-06T04:41:50;36.37;;;12.83;;
72201;SDS011;60105;54.956;73.412;2023-08-06T04:44:51;45.42;;;14.18;;
72201;SDS011;60105;54.956;73.412;2023-08-06T04:47:52;49.53;;;14.27;;
72201;SDS011;60105;54.956;73.412;2023-08-06T04:50:54;45.10;;;13.80;;
72201;SDS011;60105;54.956;73.412;2023-08-06T04:53:56;32.85;;;11.88;;
72201;SDS011;60105;54.956;73.412;2023-08-06T04:56:58;32.30;;;12.25;;
72201;SDS011;60105;54.956;73.412;2023-08-06T04:59:59;60.77;;;15.67;;
72201;SDS011;60105;54.956;73.412;2023-08-06T05:03:00;59.13;;;16.55;;
72201;SDS011;60105;54.956;73.412;2023-08-06T05:06:02;31.75;;;11.15;;
72201;SDS011;60105;54.956;73.412;2023-08-06T05:09:40;52.05;;;14.43;;
72201;SDS011;60105;54.956;73.412;2023-08-06T05:12:41;44.17;;;12.67;;
72201;SDS011;60105;54.956;73.412;2023-08-06T05:15:43;64.68;;;15.73;;
72201;SDS011;60105;54.956;73.412;2023-08-06T05:18:46;56.03;;;16.52;;
72201;SDS011;60105;54.956;73.412;2023-08-06T05:21:48;58.87;;;15.83;;
72201;SDS011;60105;54.956;73.412;2023-08-06T05:24:49;39.67;;;12.45;;
72201;SDS011;60105;54.956;73.412;2023-08-06T05:27:50;50.70;;;13.68;;
72201;SDS011;60105;54.956;73.412;2023-08-06T05:30:52;45.72;;;13.68;;
72201;SDS011;60105;54.956;73.412;2023-08-06T05:33:53;36.80;;;12.77;;
72201;SDS011;60105;54.956;73.412;2023-08-06T05:36:55;33.80;;;11.27;;
72201;SDS011;60105;54.956;73.412;2023-08-06T05:40:00;19.25;;;9.05;;
72201;SDS011;60105;54.956;73.412;2023-08-06T05:43:06;22.73;;;9.90;;
72201;SDS011;60105;54.956;73.412;2023-08-06T05:46:07;20.45;;;9.13;;
72201;SDS011;60105;54.956;73.412;2023-08-06T05:49:40;26.45;;;9.30;;
72201;SDS011;60105;54.956;73.412;2023-08-06T05:52:42;17.47;;;9.03;;
72201;SDS011;60105;54.956;73.412;2023-08-06T05:55:43;14.05;;;8.93;;
72201;SDS011;60105;54.956;73.412;2023-08-06T05:58:45;18.17;;;8.82;;
72201;SDS011;60105;54.956;73.412;2023-08-06T06:01:48;12.37;;;7.93;;
72201;SDS011;60105;54.956;73.412;2023-08-06T06:04:49;10.73;;;7.23;;
72201;SDS011;60105;54.956;73.412;2023-08-06T06:07:51;13.43;;;8.02;;
72201;SDS011;60105;54.956;73.412;2023-08-06T06:10:52;20.38;;;7.70;;
72201;SDS011;60105;54.956;73.412;2023-08-06T06:13:53;13.95;;;7.95;;
72201;SDS011;60105;54.956;73.412;2023-08-06T06:16:55;15.87;;;8.33;;
72201;SDS011;60105;54.956;73.412;2023-08-06T06:19:56;13.68;;;7.57;;
72201;SDS011;60105;54.956;73.412;2023-08-06T06:22:58;14.95;;;8.38;;
72201;SDS011;60105;54.956;73.412;2023-08-06T06:25:59;12.70;;;8.35;;
72201;SDS011;60105;54.956;73.412;2023-08-06T06:29:09;17.58;;;8.84;;
72201;SDS011;60105;54.956;73.412;2023-08-06T06:32:11;13.57;;;7.50;;
72201;SDS011;60105;54.956;73.412;2023-08-06T06:35:12;15.60;;;8.60;;
72201;SDS011;60105;54.956;73.412;2023-08-06T06:38:13;11.30;;;7.50;;
72201;SDS011;60105;54.956;73.412;2023-08-06T06:41:15;13.52;;;7.55;;
72201;SDS011;60105;54.956;73.412;2023-08-06T06:47:41;13.70;;;8.27;;
72201;SDS011;60105;54.956;73.412;2023-08-06T06:50:43;14.03;;;7.40;;
72201;SDS011;60105;54.956;73.412;2023-08-06T06:53:47;11.98;;;7.20;;
72201;SDS011;60105;54.956;73.412;2023-08-06T06:56:49;13.23;;;7.67;;
72201;SDS011;60105;54.956;73.412;2023-08-06T06:59:51;14.87;;;7.70;;
72201;SDS011;60105;54.956;73.412;2023-08-06T07:02:52;13.27;;;8.88;;
72201;SDS011;60105;54.956;73.412;2023-08-06T07:05:56;11.43;;;7.83;;
72201;SDS011;60105;54.956;73.412;2023-08-06T07:09:40;10.00;;;7.15;;
72201;SDS011;60105;54.956;73.412;2023-08-06T07:12:41;13.65;;;8.43;;
72201;SDS011;60105;54.956;73.412;2023-08-06T07:15:43;11.57;;;7.35;;
72201;SDS011;60105;54.956;73.412;2023-08-06T07:18:44;10.55;;;7.05;;
72201;SDS011;60105;54.956;73.412;2023-08-06T07:21:45;11.47;;;7.20;;
72201;SDS011;60105;54.956;73.412;2023-08-06T07:24:47;8.77;;;5.73;;
72201;SDS011;60105;54.956;73.412;2023-08-06T07:27:48;11.43;;;7.38;;
72201;SDS011;60105;54.956;73.412;2023-08-06T07:30:49;10.18;;;7.00;;
72201;SDS011;60105;54.956;73.412;2023-08-06T07:33:51;14.15;;;7.90;;
72201;SDS011;60105;54.956;73.412;2023-08-06T07:36:52;11.87;;;7.03;;
72201;SDS011;60105;54.956;73.412;2023-08-06T07:39:56;11.07;;;7.37;;
72201;SDS011;60105;54.956;73.412;2023-08-06T07:42:58;14.32;;;7.82;;
72201;SDS011;60105;54.956;73.412;2023-08-06T07:45:59;15.70;;;8.67;;
72201;SDS011;60105;54.956;73.412;2023-08-06T07:49:40;16.85;;;9.68;;
72201;SDS011;60105;54.956;73.412;2023-08-06T07:52:41;14.03;;;8.57;;
72201;SDS011;60105;54.956;73.412;2023-08-06T07:55:51;14.57;;;9.65;;
72201;SDS011;60105;54.956;73.412;2023-08-06T07:58:54;13.40;;;8.00;;
72201;SDS011;60105;54.956;73.412;2023-08-06T08:01:55;15.93;;;8.18;;
72201;SDS011;60105;54.956;73.412;2023-08-06T08:04:56;12.90;;;8.33;;
72201;SDS011;60105;54.956;73.412;2023-08-06T08:07:58;12.75;;;7.88;;
72201;SDS011;60105;54.956;73.412;2023-08-06T08:10:59;11.83;;;8.07;;
72201;SDS011;60105;54.956;73.412;2023-08-06T08:14:40;15.95;;;8.00;;
72201;SDS011;60105;54.956;73.412;2023-08-06T08:17:42;15.37;;;10.00;;
72201;SDS011;60105;54.956;73.412;2023-08-06T08:20:43;14.90;;;8.45;;
72201;SDS011;60105;54.956;73.412;2023-08-06T08:23:44;14.02;;;8.35;;
72201;SDS011;60105;54.956;73.412;2023-08-06T08:26:46;19.55;;;8.90;;
72201;SDS011;60105;54.956;73.412;2023-08-06T08:29:47;11.87;;;7.80;;
72201;SDS011;60105;54.956;73.412;2023-08-06T08:32:48;13.00;;;7.97;;
72201;SDS011;60105;54.956;73.412;2023-08-06T08:35:50;17.42;;;7.88;;
72201;SDS011;60105;54.956;73.412;2023-08-06T08:38:51;14.93;;;8.23;;
72201;SDS011;60105;54.956;73.412;2023-08-06T08:42:00;15.00;;;7.67;;
72201;SDS011;60105;54.956;73.412;2023-08-06T08:45:04;12.32;;;7.35;;
72201;SDS011;60105;54.956;73.412;2023-08-06T08:48:07;12.15;;;8.13;;
72201;SDS011;60105;54.956;73.412;2023-08-06T08:51:10;14.67;;;8.03;;
72201;SDS011;60105;54.956;73.412;2023-08-06T08:54:40;13.52;;;7.85;;
72201;SDS011;60105;54.956;73.412;2023-08-06T08:57:42;18.07;;;8.40;;
72201;SDS011;60105;54.956;73.412;2023-08-06T09:00:47;15.55;;;7.53;;
72201;SDS011;60105;54.956;73.412;2023-08-06T09:03:49;14.93;;;7.50;;
72201;SDS011;60105;54.956;73.412;2023-08-06T09:06:52;18.08;;;7.45;;
72201;SDS011;60105;54.956;73.412;2023-08-06T09:09:58;13.30;;;7.20;;
72201;SDS011;60105;54.956;73.412;2023-08-06T09:13:06;13.90;;;7.45;;
72201;SDS011;60105;54.956;73.412;2023-08-06T09:16:09;13.13;;;7.07;;
72201;SDS011;60105;54.956;73.412;2023-08-06T09:19:43;13.90;;;7.28;;
72201;SDS011;60105;54.956;73.412;2023-08-06T09:22:46;11.88;;;7.40;;
72201;SDS011;60105;54.956;73.412;2023-08-06T09:25:51;13.65;;;7.40;;
72201;SDS011;60105;54.956;73.412;2023-08-06T09:28:52;15.13;;;7.33;;
72201;SDS011;60105;54.956;73.412;2023-08-06T09:31:54;13.30;;;7.30;;
72201;SDS011;60105;54.956;73.412;2023-08-06T09:34:56;13.32;;;6.80;;
72201;SDS011;60105;54.956;73.412;2023-08-06T09:38:07;12.55;;;6.75;;
72201;SDS011;60105;54.956;73.412;2023-08-06T09:41:11;12.97;;;6.93;;
72201;SDS011;60105;54.956;73.412;2023-08-06T09:47:41;12.18;;;6.68;;
72201;SDS011;60105;54.956;73.412;2023-08-06T09:50:43;12.75;;;6.65;;
72201;SDS011;60105;54.956;73.412;2023-08-06T09:53:45;9.20;;;6.18;;
72201;SDS011;60105;54.956;73.412;2023-08-06T09:56:49;10.50;;;6.67;;
72201;SDS011;60105;54.956;73.412;2023-08-06T09:59:51;10.60;;;5.75;;
72201;SDS011;60105;54.956;73.412;2023-08-06T10:02:53;10.88;;;6.60;;
72201;SDS011;60105;54.956;73.412;2023-08-06T10:05:57;10.07;;;6.00;;
72201;SDS011;60105;54.956;73.412;2023-08-06T10:09:40;9.40;;;5.57;;
72201;SDS011;60105;54.956;73.412;2023-08-06T10:12:46;11.27;;;6.38;;
72201;SDS011;60105;54.956;73.412;2023-08-06T10:15:50;11.70;;;5.77;;
72201;SDS011;60105;54.956;73.412;2023-08-06T10:18:53;10.80;;;6.10;;
72201;SDS011;60105;54.956;73.412;2023-08-06T10:22:11;12.80;;;6.30;;
72201;SDS011;60105;54.956;73.412;2023-08-06T10:25:16;11.13;;;6.00;;
72201;SDS011;60105;54.956;73.412;2023-08-06T10:28:18;12.07;;;6.05;;
72201;SDS011;60105;54.956;73.412;2023-08-06T10:31:20;10.43;;;6.00;;
72201;SDS011;60105;54.956;73.412;2023-08-06T10:34:54;7.50;;;3.80;;
72201;SDS011;60105;54.956;73.412;2023-08-06T10:41:27;10.37;;;5.63;;
72201;SDS011;60105;54.956;73.412;2023-08-06T10:48:01;11.48;;;5.13;;
72201;SDS011;60105;54.956;73.412;2023-08-06T10:51:03;11.30;;;5.13;;
72201;SDS011;60105;54.956;73.412;2023-08-06T10:54:40;7.40;;;4.82;;
72201;SDS011;60105;54.956;73.412;2023-08-06T10:57:41;11.20;;;5.43;;
72201;SDS011;60105;54.956;73.412;2023-08-06T11:00:43;9.43;;;5.40;;
72201;SDS011;60105;54.956;73.412;2023-08-06T11:03:45;9.10;;;5.10;;
72201;SDS011;60105;54.956;73.412;2023-08-06T11:06:51;11.15;;;5.18;;
72201;SDS011;60105;54.956;73.412;2023-08-06T11:10:00;9.98;;;5.38;;
72201;SDS011;60105;54.956;73.412;2023-08-06T11:13:04;11.50;;;5.82;;
72201;SDS011;60105;54.956;73.412;2023-08-06T11:16:05;10.03;;;5.17;;
72201;SDS011;60105;54.956;73.412;2023-08-06T11:19:40;10.00;;;4.93;;
72201;SDS011;60105;54.956;73.412;2023-08-06T11:22:42;9.27;;;4.78;;
72201;SDS011;60105;54.956;73.412;2023-08-06T11:25:44;11.10;;;6.20;;
72201;SDS011;60105;54.956;73.412;2023-08-06T11:28:46;10.18;;;5.70;;
72201;SDS011;60105;54.956;73.412;2023-08-06T11:31:48;38.67;;;14.07;;
72201;SDS011;60105;54.956;73.412;2023-08-06T11:34:52;13.93;;;5.57;;
72201;SDS011;60105;54.956;73.412;2023-08-06T11:37:55;23.23;;;9.65;;
72201;SDS011;60105;54.956;73.412;2023-08-06T11:40:57;11.73;;;5.93;;
72201;SDS011;60105;54.956;73.412;2023-08-06T11:44:40;9.52;;;4.60;;
72201;SDS011;60105;54.956;73.412;2023-08-06T11:47:51;12.73;;;6.07;;
72201;SDS011;60105;54.956;73.412;2023-08-06T11:50:54;10.27;;;5.70;;
72201;SDS011;60105;54.956;73.412;2023-08-06T11:54:40;10.63;;;4.87;;
72201;SDS011;60105;54.956;73.412;2023-08-06T11:57:45;11.43;;;4.93;;
72201;SDS011;60105;54.956;73.412;2023-08-06T12:00:48;8.50;;;4.70;;
72201;SDS011;60105;54.956;73.412;2023-08-06T12:03:50;9.18;;;4.03;;
72201;SDS011;60105;54.956;73.412;2023-08-06T12:06:51;11.63;;;4.97;;
72201;SDS011;60105;54.956;73.412;2023-08-06T12:09:54;9.90;;;4.70;;
72201;SDS011;60105;54.956;73.412;2023-08-06T12:12:56;9.82;;;4.30;;
72201;SDS011;60105;54.956;73.412;2023-08-06T12:15:57;7.97;;;4.25;;
72201;SDS011;60105;54.956;73.412;2023-08-06T12:19:40;12.16;;;4.26;;
72201;SDS011;60105;54.956;73.412;2023-08-06T12:22:41;13.05;;;4.97;;
72201;SDS011;60105;54.956;73.412;2023-08-06T12:25:43;10.30;;;4.57;;
72201;SDS011;60105;54.956;73.412;2023-08-06T12:28:45;14.18;;;3.97;;
72201;SDS011;60105;54.956;73.412;2023-08-06T12:31:47;8.40;;;4.40;;
72201;SDS011;60105;54.956;73.412;2023-08-06T12:34:49;12.60;;;3.53;;
72201;SDS011;60105;54.956;73.412;2023-08-06T12:37:50;7.90;;;3.90;;
72201;SDS011;60105;54.956;73.412;2023-08-06T12:40:55;7.45;;;3.80;;
72201;SDS011;60105;54.956;73.412;2023-08-06T12:44:40;7.91;;;3.64;;
72201;SDS011;60105;54.956;73.412;2023-08-06T12:47:41;7.60;;;3.47;;
72201;SDS011;60105;54.956;73.412;2023-08-06T12:50:43;9.27;;;3.90;;
72201;SDS011;60105;54.956;73.412;2023-08-06T12:53:45;6.40;;;3.17;;
72201;SDS011;60105;54.956;73.412;2023-08-06T12:56:47;7.23;;;3.63;;
72201;SDS011;60105;54.956;73.412;2023-08-06T12:59:48;8.93;;;3.75;;
72201;SDS011;60105;54.956;73.412;2023-08-06T13:02:50;8.88;;;3.60;;
72201;SDS011;60105;54.956;73.412;2023-08-06T13:05:53;7.30;;;3.67;;
72201;SDS011;60105;54.956;73.412;2023-08-06T13:08:54;7.28;;;3.38;;
72201;SDS011;60105;54.956;73.412;2023-08-06T13:11:56;7.68;;;3.55;;
72201;SDS011;60105;54.956;73.412;2023-08-06T13:14:58;6.07;;;3.30;;
72201;SDS011;60105;54.956;73.412;2023-08-06T13:18:00;9.23;;;3.58;;
72201;SDS011;60105;54.956;73.412;2023-08-06T13:21:01;10.67;;;3.10;;
72201;SDS011;60105;54.956;73.412;2023-08-06T13:24:40;6.97;;;3.30;;
72201;SDS011;60105;54.956;73.412;2023-08-06T13:27:42;8.93;;;3.27;;
72201;SDS011;60105;54.956;73.412;2023-08-06T13:30:45;13.37;;;3.63;;
72201;SDS011;60105;54.956;73.412;2023-08-06T13:33:46;8.47;;;2.70;;
72201;SDS011;60105;54.956;73.412;2023-08-06T13:36:49;7.45;;;3.35;;
72201;SDS011;60105;54.956;73.412;2023-08-06T13:39:50;9.70;;;2.67;;
72201;SDS011;60105;54.956;73.412;2023-08-06T13:42:52;6.75;;;2.85;;
72201;SDS011;60105;54.956;73.412;2023-08-06T13:45:53;5.63;;;2.42;;
72201;SDS011;60105;54.956;73.412;2023-08-06T13:48:55;7.57;;;2.97;;
72201;SDS011;60105;54.956;73.412;2023-08-06T13:51:56;13.20;;;3.17;;
72201;SDS011;60105;54.956;73.412;2023-08-06T13:54:59;17.13;;;4.35;;
72201;SDS011;60105;54.956;73.412;2023-08-06T13:58:00;27.45;;;7.13;;
72201;SDS011;60105;54.956;73.412;2023-08-06T14:01:02;8.40;;;3.57;;
72201;SDS011;60105;54.956;73.412;2023-08-06T14:04:40;10.05;;;3.60;;
72201;SDS011;60105;54.956;73.412;2023-08-06T14:07:42;7.38;;;2.95;;
72201;SDS011;60105;54.956;73.412;2023-08-06T14:10:44;7.80;;;2.50;;
72201;SDS011;60105;54.956;73.412;2023-08-06T14:13:45;11.30;;;3.97;;
72201;SDS011;60105;54.956;73.412;2023-08-06T14:16:47;7.40;;;2.53;;
72201;SDS011;60105;54.956;73.412;2023-08-06T14:19:49;4.43;;;2.13;;
72201;SDS011;60105;54.956;73.412;2023-08-06T14:22:51;5.33;;;2.47;;
72201;SDS011;60105;54.956;73.412;2023-08-06T14:25:52;6.32;;;2.50;;
72201;SDS011;60105;54.956;73.412;2023-08-06T14:28:53;7.03;;;2.63;;
72201;SDS011;60105;54.956;73.412;2023-08-06T14:31:55;8.03;;;2.83;;
72201;SDS011;60105;54.956;73.412;2023-08-06T14:34:56;6.10;;;2.60;;
72201;SDS011;60105;54.956;73.412;2023-08-06T14:38:00;12.63;;;3.03;;
72201;SDS011;60105;54.956;73.412;2023-08-06T14:41:01;7.43;;;2.53;;
72201;SDS011;60105;54.956;73.412;2023-08-06T14:44:40;6.03;;;2.45;;
72201;SDS011;60105;54.956;73.412;2023-08-06T14:47:42;8.27;;;2.55;;
72201;SDS011;60105;54.956;73.412;2023-08-06T14:50:44;6.75;;;2.90;;
72201;SDS011;60105;54.956;73.412;2023-08-06T14:53:45;7.17;;;3.07;;
72201;SDS011;60105;54.956;73.412;2023-08-06T14:56:47;7.68;;;3.05;;
72201;SDS011;60105;54.956;73.412;2023-08-06T14:59:48;7.30;;;3.37;;
72201;SDS011;60105;54.956;73.412;2023-08-06T15:02:49;7.72;;;3.08;;
72201;SDS011;60105;54.956;73.412;2023-08-06T15:05:51;10.57;;;3.40;;
72201;SDS011;60105;54.956;73.412;2023-08-06T15:08:52;9.65;;;3.28;;
72201;SDS011;60105;54.956;73.412;2023-08-06T15:11:58;6.77;;;3.17;;
72201;SDS011;60105;54.956;73.412;2023-08-06T15:15:00;8.98;;;3.47;;
72201;SDS011;60105;54.956;73.412;2023-08-06T15:18:05;6.72;;;3.15;;
72201;SDS011;60105;54.956;73.412;2023-08-06T15:21:07;9.13;;;3.53;;
72201;SDS011;60105;54.956;73.412;2023-08-06T15:24:40;7.75;;;3.28;;
72201;SDS011;60105;54.956;73.412;2023-08-06T15:27:43;10.67;;;3.57;;
72201;SDS011;60105;54.956;73.412;2023-08-06T15:30:53;8.02;;;3.88;;
72201;SDS011;60105;54.956;73.412;2023-08-06T15:33:55;12.65;;;3.60;;
72201;SDS011;60105;54.956;73.412;2023-08-06T15:36:57;12.10;;;3.27;;
72201;SDS011;60105;54.956;73.412;2023-08-06T15:39:58;10.27;;;3.83;;
72201;SDS011;60105;54.956;73.412;2023-08-06T15:43:00;13.27;;;4.25;;
72201;SDS011;60105;54.956;73.412;2023-08-06T15:46:01;6.50;;;2.90;;
72201;SDS011;60105;54.956;73.412;2023-08-06T15:49:40;8.40;;;3.75;;
72201;SDS011;60105;54.956;73.412;2023-08-06T15:52:41;9.05;;;3.97;;
72201;SDS011;60105;54.956;73.412;2023-08-06T15:55:43;8.43;;;2.90;;
72201;SDS011;60105;54.956;73.412;2023-08-06T15:58:46;7.15;;;3.25;;
72201;SDS011;60105;54.956;73.412;2023-08-06T16:01:47;8.40;;;3.25;;
72201;SDS011;60105;54.956;73.412;2023-08-06T16:04:49;5.70;;;2.92;;
72201;SDS011;60105;54.956;73.412;2023-08-06T16:07:50;7.03;;;3.13;;
72201;SDS011;60105;54.956;73.412;2023-08-06T16:10:52;7.15;;;2.83;;
72201;SDS011;60105;54.956;73.412;2023-08-06T16:13:53;7.10;;;2.67;;
72201;SDS011;60105;54.956;73.412;2023-08-06T16:16:55;7.68;;;2.65;;
72201;SDS011;60105;54.956;73.412;2023-08-06T16:19:56;10.00;;;3.43;;
72201;SDS011;60105;54.956;73.412;2023-08-06T16:22:57;8.65;;;2.90;;
72201;SDS011;60105;54.956;73.412;2023-08-06T16:25:59;7.15;;;2.75;;
72201;SDS011;60105;54.956;73.412;2023-08-06T16:29:08;7.58;;;2.34;;
72201;SDS011;60105;54.956;73.412;2023-08-06T16:32:10;6.97;;;3.10;;
72201;SDS011;60105;54.956;73.412;2023-08-06T16:35:11;9.17;;;3.10;;
72201;SDS011;60105;54.956;73.412;2023-08-06T16:38:13;7.47;;;3.20;;
72201;SDS011;60105;54.956;73.412;2023-08-06T16:41:16;11.03;;;3.10;;
72201;SDS011;60105;54.956;73.412;2023-08-06T16:47:41;7.40;;;3.13;;
72201;SDS011;60105;54.956;73.412;2023-08-06T16:50:42;7.03;;;2.83;;
72201;SDS011;60105;54.956;73.412;2023-08-06T16:53:44;9.80;;;2.95;;
72201;SDS011;60105;54.956;73.412;2023-08-06T16:56:45;8.00;;;3.03;;
72201;SDS011;60105;54.956;73.412;2023-08-06T16:59:46;6.65;;;2.72;;
72201;SDS011;60105;54.956;73.412;2023-08-06T17:02:48;7.22;;;2.92;;
72201;SDS011;60105;54.956;73.412;2023-08-06T17:05:49;7.45;;;3.20;;
72201;SDS011;60105;54.956;73.412;2023-08-06T17:08:50;6.30;;;2.40;;
72201;SDS011;60105;54.956;73.412;2023-08-06T17:11:52;5.90;;;2.10;;
72201;SDS011;60105;54.956;73.412;2023-08-06T17:14:53;8.13;;;2.97;;
72201;SDS011;60105;54.956;73.412;2023-08-06T17:17:55;6.60;;;2.37;;
72201;SDS011;60105;54.956;73.412;2023-08-06T17:20:57;5.50;;;2.22;;
72201;SDS011;60105;54.956;73.412;2023-08-06T17:24:40;6.64;;;2.26;;
72201;SDS011;60105;54.956;73.412;2023-08-06T17:27:42;6.47;;;2.13;;
72201;SDS011;60105;54.956;73.412;2023-08-06T17:30:43;6.13;;;2.30;;
72201;SDS011;60105;54.956;73.412;2023-08-06T17:33:44;5.25;;;2.42;;
72201;SDS011;60105;54.956;73.412;2023-08-06T17:36:46;5.95;;;2.50;;
72201;SDS011;60105;54.956;73.412;2023-08-06T17:39:47;4.53;;;2.63;;
72201;SDS011;60105;54.956;73.412;2023-08-06T17:42:49;5.22;;;2.47;;
72201;SDS011;60105;54.956;73.412;2023-08-06T17:45:50;6.23;;;2.00;;
72201;SDS011;60105;54.956;73.412;2023-08-06T17:48:51;6.65;;;2.10;;
72201;SDS011;60105;54.956;73.412;2023-08-06T17:51:56;5.85;;;1.77;;
72201;SDS011;60105;54.956;73.412;2023-08-06T17:54:57;4.47;;;2.20;;
72201;SDS011;60105;54.956;73.412;2023-08-06T17:57:59;8.77;;;2.53;;
72201;SDS011;60105;54.956;73.412;2023-08-06T18:01:01;6.70;;;2.33;;
72201;SDS011;60105;54.956;73.412;2023-08-06T18:04:40;4.13;;;1.60;;
72201;SDS011;60105;54.956;73.412;2023-08-06T18:07:42;4.30;;;1.80;;
72201;SDS011;60105;54.956;73.412;2023-08-06T18:10:45;5.00;;;1.70;;
72201;SDS011;60105;54.956;73.412;2023-08-06T18:13:46;4.82;;;1.88;;
72201;SDS011;60105;54.956;73.412;2023-08-06T18:16:48;4.63;;;1.80;;
72201;SDS011;60105;54.956;73.412;2023-08-06T18:19:49;3.42;;;1.60;;
72201;SDS011;60105;54.956;73.412;2023-08-06T18:22:50;5.65;;;2.13;;
72201;SDS011;60105;54.956;73.412;2023-08-06T18:25:52;4.60;;;1.97;;
72201;SDS011;60105;54.956;73.412;2023-08-06T18:29:09;5.04;;;2.03;;
72201;SDS011;60105;54.956;73.412;2023-08-06T18:32:11;4.18;;;1.90;;
72201;SDS011;60105;54.956;73.412;2023-08-06T18:35:13;5.80;;;2.73;;
72201;SDS011;60105;54.956;73.412;2023-08-06T18:38:16;6.55;;;2.03;;
72201;SDS011;60105;54.956;73.412;2023-08-06T18:41:17;4.23;;;1.80;;